Latest Coastal Weather Observations for Coolangatta

IDQ60701

Issued at 1:15 pm EST Thursday 23 October 2014 (issued every 10 minutes, with the page automatically refreshed every 10 minutes)

About coastal observations | Map of coastal stations | Coastal observations for QLD | Marine services | Other Formats
Station Details ID: 040717 Name: COOLANGATTA Lat: -28.17 Lon: 153.51 Height: 4.0 m
Data from the previous 72 hours. | See also: Recent months at Coolangatta
Date/Time
EST
Temp

°C
Wind Pressure Rain
since 9am
mm
Weather Cloud Vis
km
Sea
Height
m
Swell
Dir
 
Speed
knots
Gust
knots
hPa Trend Height
m
Period
s
Dir
23/01:00pm 23.2 NNE 13 17 1019.3 - 0.0 - - 10 - - - -
23/12:30pm 23.7 NNE 13 16 1019.7 - 0.0 - - 10 - - - -
23/12:00pm 23.7 NNE 13 16 1020.2 - 0.0 - - 10 - - - -
23/11:30am 23.7 NNE 13 16 1020.5 - 0.0 - - 10 - - - -
23/11:00am 22.7 NNE 13 17 1021.0 - 0.0 - - 10 - - - -
23/10:30am 23.5 N 12 15 1021.5 - 0.0 - - 10 - - - -
23/10:00am 22.6 N 12 14 1022.0 - 0.0 - - 10 - - - -
23/09:30am 22.4 N 12 14 1022.2 - 0.0 - - 10 - - - -
23/09:00am 21.8 N 11 14 1022.4 - 0.0 - - 10 - - - -
23/08:30am 22.1 N 8 11 1022.7 - 0.0 - - 10 - - - -
23/08:00am 21.2 NNW 5 8 1022.8 - 0.0 - - 10 - - - -
23/07:30am 20.3 WSW 5 7 1022.9 - 0.0 - - 10 - - - -
23/07:00am 18.0 SW 3 4 1022.8 - 0.0 - Partly cloudy 10 - - - -
23/06:30am 14.7 CALM 0 0 1022.6 - 0.0 - Partly cloudy 10 - - - -
23/06:00am 14.2 SSW 1 4 1022.3 - 0.0 - - 10 - - - -
23/05:30am 13.3 SW 2 5 1022.2 - 0.0 - Partly cloudy 10 - - - -
23/05:10am 12.6 SW 1 4 1022.0 - 0.0 - Partly cloudy 10 - - - -
23/05:00am 12.5 CALM 0 0 1021.9 - 0.0 - Partly cloudy 4 - - - -
23/04:50am 12.7 CALM 0 0 1021.9 - 0.0 - Partly cloudy 6 - - - -
23/04:30am 12.5 SW 3 4 1021.9 - 0.0 - - 10 - - - -
23/04:00am 13.9 CALM 0 0 1021.8 - 0.0 - Partly cloudy 10 - - - -
23/03:30am 14.3 CALM 0 0 1021.8 - 0.0 - Partly cloudy 10 - - - -
23/03:00am 14.0 SSW 2 3 1021.8 - 0.0 - Cloudy 10 - - - -
23/02:30am 14.0 S 2 4 1021.9 - 0.0 - Cloudy 10 - - - -
23/02:00am 13.5 WSW 4 4 1022.0 - 0.0 - Partly cloudy 10 - - - -
23/01:30am 13.9 SSW 1 4 1022.3 - 0.0 - Partly cloudy 10 - - - -
23/01:00am 13.8 SSW 3 4 1022.6 - 0.0 - Partly cloudy 10 - - - -
23/12:30am 13.5 SW 1 4 1022.9 - 0.0 - Partly cloudy 10 - - - -
23/12:00am 13.9 SW 3 5 1023.1 - 0.0 - Partly cloudy 10 - - - -
 
Date/Time
EST
Temp

°C
Wind Pressure Rain
since 9am
mm
Weather Cloud Vis
km
Sea
Height
m
Swell
Dir
 
Speed
knots
Gust
knots
hPa Trend Height
m
Period
s
Dir
22/11:30pm 14.1 CALM 0 0 1023.3 - 0.0 - Partly cloudy 10 - - - -
22/11:00pm 15.1 SW 3 5 1023.8 - 0.0 - Partly cloudy 10 - - - -
22/10:30pm 15.1 SW 3 5 1023.8 - 0.0 - Partly cloudy 10 - - - -
22/10:00pm 15.7 SW 5 6 1023.7 - 0.0 - Partly cloudy 10 - - - -
22/09:30pm 15.3 WSW 5 7 1023.8 - 0.0 - Partly cloudy 10 - - - -
22/09:00pm 14.6 WSW 4 5 1023.8 - 0.0 - Mostly clear 10 - - - -
22/08:30pm 16.2 S 4 5 1023.9 - 0.0 - Partly cloudy 10 - - - -
22/08:00pm 16.8 S 4 4 1023.8 - 0.0 - Partly cloudy 10 - - - -
22/07:30pm 17.9 S 5 7 1023.8 - 0.0 - Cloudy 10 - - - -
22/07:00pm 18.3 SSE 4 6 1023.8 - 0.0 - Cloudy 10 - - - -
22/06:30pm 19.1 SSE 6 7 1023.6 - 0.0 - Cloudy 10 - - - -
22/06:00pm 19.1 SE 7 8 1023.5 - 0.0 - Mostly cloudy 10 - - - -
22/05:30pm 19.6 SE 8 12 1023.4 - 0.0 - Partly cloudy 10 - - - -
22/05:00pm 20.1 SE 10 13 1023.3 - 0.0 - Partly cloudy 10 - - - -
22/04:30pm 20.5 ESE 10 13 1023.2 - 0.0 - Partly cloudy 10 - - - -
22/04:00pm 20.9 ESE 11 15 1023.1 - 0.0 - Partly cloudy 10 - - - -
22/03:30pm 21.5 ESE 11 16 1023.2 - 0.0 - Partly cloudy 10 - - - -
22/03:00pm 21.9 SE 13 18 1023.1 - 0.0 - Cloudy 10 - - - -
22/02:30pm 22.7 SE 12 18 1023.3 - 0.0 - Partly cloudy 10 - - - -
22/02:00pm 22.0 ESE 13 18 1023.6 - 0.0 - Partly cloudy 10 - - - -
22/01:30pm 22.5 SE 14 19 1023.8 - 0.0 - Partly cloudy 10 - - - -
22/01:00pm 21.8 SE 12 17 1024.2 - 0.0 - Partly cloudy 10 - - - -
22/12:30pm 21.8 SE 14 20 1024.6 - 0.0 - Partly cloudy 10 - - - -
22/12:00pm 21.9 SE 14 20 1024.9 - 0.0 - Cloudy 10 - - - -
22/11:30am 22.5 SSE 14 19 1025.3 - 0.0 - Partly cloudy 10 - - - -
22/11:00am 23.0 SSE 14 19 1025.5 - 0.0 - Partly cloudy 10 - - - -
22/10:30am 21.5 SE 12 16 1025.7 - 0.0 - Cloudy 10 - - - -
22/10:00am 21.8 S 11 14 1026.1 - 0.0 - Partly cloudy 10 - - - -
22/09:30am 21.5 S 9 13 1026.3 - 0.0 - Partly cloudy 10 - - - -
22/09:00am 20.3 S 11 15 1026.4 - 1.2 - Mostly cloudy 10 - - - -
22/08:30am 20.8 S 10 13 1026.1 - 1.2 - Partly cloudy 10 - - - -
22/08:00am 19.5 SSW 8 11 1026.0 - 1.2 - Partly cloudy 10 - - - -
22/07:30am 18.7 S 8 11 1026.0 - 1.2 - Partly cloudy 10 - - - -
22/07:00am 18.2 SSW 9 13 1025.8 - 1.2 - Partly cloudy 10 - - - -
22/06:30am 16.9 SSW 8 11 1025.5 - 1.2 - - 10 - - - -
22/06:00am 16.2 SSW 8 12 1025.4 - 1.2 - - 10 - - - -
22/05:30am 15.6 SSW 7 9 1025.4 - 1.2 - Partly cloudy 10 - - - -
22/05:00am 15.5 SSW 8 10 1025.2 - 1.2 - Partly cloudy 10 - - - -
22/04:30am 15.4 SSW 6 9 1025.1 - 1.2 - Partly cloudy 10 - - - -
22/04:00am 15.5 S 7 11 1025.2 - 1.2 - Partly cloudy 10 - - - -
22/03:30am 15.7 SSW 8 12 1025.2 - 1.2 - Partly cloudy 10 - - - -
22/03:00am 15.4 SW 7 11 1025.2 - 1.2 Recent precip. Mostly cloudy 10 - - - -
22/02:30am 15.7 SSW 6 9 1025.6 - 1.0 - Partly cloudy 10 - - - -
22/02:00am 15.6 S 4 6 1025.9 - 1.0 - Partly cloudy 10 - - - -
22/01:30am 15.8 SW 8 13 1026.1 - 1.0 - Partly cloudy 10 - - - -
22/01:00am 15.9 SSW 9 12 1026.5 - 1.0 - Partly cloudy 10 - - - -
22/12:30am 16.2 SSW 9 13 1026.9 - 1.0 - Partly cloudy 10 - - - -
22/12:00am 16.4 SSW 6 9 1027.3 - 1.0 - Cloudy 10 - - - -
 
Date/Time
EST
Temp

°C
Wind Pressure Rain
since 9am
mm
Weather Cloud Vis
km
Sea
Height
m
Swell
Dir
 
Speed
knots
Gust
knots
hPa Trend Height
m
Period
s
Dir
21/11:30pm 16.8 SSW 7 10 1027.7 - 1.0 - Partly cloudy 10 - - - -
21/11:00pm 16.8 SSW 9 13 1027.9 - 1.0 - Partly cloudy 10 - - - -
21/10:30pm 16.9 S 10 15 1028.1 - 1.0 - Partly cloudy 10 - - - -
21/10:01pm 16.3 SSE 6 9 1028.3 - 1.0 - Partly cloudy 10 - - - -
21/10:00pm 16.4 SSE 7 10 1028.3 - 1.0 - Partly cloudy 10 - - - -
21/09:50pm 16.5 SSE 8 11 1028.4 - 0.8 - Partly cloudy 6 - - - -
21/09:30pm 16.2 SSW 6 9 1028.4 - 0.8 - Partly cloudy 10 - - - -
21/09:24pm 16.1 S 7 11 1028.4 - 0.8 - Partly cloudy 10 - - - -
21/09:00pm 16.5 SSE 7 9 1028.5 - 0.4 Rain Cloudy 10 - - - -
21/08:43pm 16.8 SE 11 14 1028.5 - 0.2 - Partly cloudy 5 - - - -
21/08:30pm 17.1 S 9 15 1028.2 - 0.0 - Partly cloudy 10 - - - -
21/08:06pm 16.8 S 9 12 1028.2 - 0.0 - Partly cloudy 10 - - - -
21/08:00pm 16.6 S 9 15 1028.2 - 0.0 - Partly cloudy 10 - - - -
21/07:50pm 16.9 SSE 14 21 1028.5 - 0.0 - Partly cloudy 6 - - - -
21/07:30pm 18.7 SSE 11 17 1027.9 - 0.0 - Partly cloudy 10 - - - -
21/07:00pm 18.6 S 10 13 1027.4 - 0.0 - Cloudy 10 - - - -
21/06:30pm 18.9 SSE 14 20 1027.3 - 0.0 - Cloudy 10 - - - -
21/06:00pm 19.1 S 15 20 1027.0 - 0.0 - Mostly cloudy 10 - - - -
21/05:30pm 19.6 S 14 19 1026.8 - 0.0 - Cloudy 10 - - - -
21/05:00pm 20.1 SSE 17 23 1026.3 - 0.0 - Partly cloudy 10 - - - -
21/04:30pm 20.6 SSE 15 21 1026.2 - 0.0 - Partly cloudy 10 - - - -
21/04:00pm 20.9 S 17 23 1026.1 - 0.0 - Cloudy 10 - - - -
21/03:49pm 20.9 S 17 27 1026.1 - 0.0 - Cloudy 10 - - - -
21/03:30pm 21.2 SSE 18 25 1026.0 - 0.0 - Partly cloudy 10 - - - -
21/03:00pm 22.5 SSE 18 24 1026.0 - 0.0 - Partly cloudy 10 - - - -
21/02:48pm 23.5 SSE 15 25 1026.0 - 0.0 - Partly cloudy 10 - - - -
21/02:30pm 21.6 SSE 16 25 1026.2 - 0.0 - Partly cloudy 10 - - - -
21/02:26pm 21.7 SSE 15 25 1026.1 - 0.0 - Partly cloudy 10 - - - -
21/02:00pm 21.5 S 16 23 1026.4 - 0.0 - Partly cloudy 10 - - - -
21/01:32pm 21.6 SSE 15 25 1026.6 - 0.0 - Partly cloudy 10 - - - -
21/01:30pm 21.9 S 15 22 1026.6 - 0.0 - Partly cloudy 10 - - - -
21/01:06pm 21.8 S 15 25 1026.8 - 0.0 - Partly cloudy 10 - - - -
21/01:00pm 21.4 S 17 22 1026.8 - 0.0 - Partly cloudy 10 - - - -
21/12:30pm 21.4 S 15 22 1027.1 - 0.0 - Partly cloudy 10 - - - -
21/12:01pm 22.2 S 17 28 1027.2 - 0.0 - Partly cloudy 10 - - - -
21/12:00pm 22.7 S 17 23 1027.2 - 0.0 - Cloudy 10 - - - -
21/11:30am 23.7 S 16 23 1027.4 - 0.0 - Partly cloudy 10 - - - -
21/11:00am 24.0 S 16 22 1027.5 - 0.0 - Partly cloudy 10 - - - -
21/10:30am 23.1 S 15 22 1027.7 - 0.0 - Partly cloudy 10 - - - -
21/10:00am 22.8 SSE 16 24 1027.8 - 0.0 - Cloudy 10 - - - -
21/09:30am 22.7 S 14 19 1028.0 - 0.0 - Partly cloudy 10 - - - -
21/09:00am 21.6 S 14 22 1028.0 - 1.4 - Cloudy 10 - - - -
21/08:30am 21.3 S 14 23 1028.0 - 1.4 - Cloudy 10 - - - -
21/08:08am 21.3 S 15 25 1027.9 - 1.4 - Cloudy 10 - - - -
21/08:00am 21.1 S 17 25 1027.7 - 1.4 - Cloudy 10 - - - -
21/07:30am 20.7 S 14 20 1027.3 - 1.4 - Cloudy 10 - - - -
21/07:00am 20.2 S 12 18 1027.0 - 1.4 - Cloudy 10 - - - -
21/06:30am 19.4 S 11 15 1026.8 - 1.4 - Cloudy 10 - - - -
21/06:00am 19.1 S 11 17 1026.6 - 1.4 - Cloudy 10 - - - -
21/05:30am 18.8 S 10 16 1026.2 - 1.4 - Cloudy 10 - - - -
21/05:00am 18.7 S 9 14 1025.8 - 1.4 - Cloudy 10 - - - -
21/04:30am 18.4 SSW 8 10 1025.7 - 1.4 - Partly cloudy 10 - - - -
21/04:00am 18.2 S 8 11 1025.5 - 1.4 - Partly cloudy 10 - - - -
21/03:30am 18.1 S 9 12 1025.4 - 1.4 - Partly cloudy 9 - - - -
21/03:24am 18.1 S 8 12 1025.5 - 1.4 - Partly cloudy 10 - - - -
21/03:18am 17.9 S 7 9 1025.6 - 1.4 - Partly cloudy 10 - - - -
21/03:14am 18.0 S 6 8 1025.7 - 1.4 - Partly cloudy 10 - - - -
21/03:00am 18.2 S 11 16 1025.6 - 1.2 Rain Partly cloudy 4 - - - -
21/02:54am 18.4 S 11 16 1025.7 - 0.0 - Partly cloudy 6 - - - -
21/02:30am 19.1 SSW 9 13 1025.4 - 0.0 - Partly cloudy 10 - - - -
21/02:00am 18.5 SSW 7 10 1025.4 - 0.0 - Partly cloudy 10 - - - -
21/01:30am 18.9 SSW 8 11 1025.8 - 0.0 - Partly cloudy 10 - - - -
21/01:00am 18.9 SSW 8 10 1026.0 - 0.0 - Partly cloudy 10 - - - -
21/12:30am 18.7 S 7 11 1026.3 - 0.0 - - 10 - - - -
21/12:00am 18.8 S 7 10 1026.5 - 0.0 - - 10 - - - -
 
Date/Time
EST
Temp

°C
Wind Pressure Rain
since 9am
mm
Weather Cloud Vis
km
Sea
Height
m
Swell
Dir
 
Speed
knots
Gust
knots
hPa Trend Height
m
Period
s
Dir
20/11:30pm 19.1 S 7 12 1026.9 - 0.0 - Partly cloudy 10 - - - -
20/11:00pm 19.1 S 8 11 1027.1 - 0.0 - - 10 - - - -
20/10:30pm 19.0 S 7 10 1027.2 - 0.0 - - 10 - - - -
20/10:00pm 19.0 SSW 6 10 1027.3 - 0.0 - - 10 - - - -
20/09:30pm 19.3 S 8 11 1027.2 - 0.0 - - 10 - - - -
20/09:00pm 19.3 S 8 11 1027.2 - 0.0 - Mostly clear 10 - - - -
20/08:30pm 19.4 S 8 13 1027.1 - 0.0 - Partly cloudy 10 - - - -
20/08:00pm 19.4 S 8 11 1026.9 - 0.0 - Partly cloudy 10 - - - -
20/07:30pm 19.4 S 10 15 1026.3 - 0.0 - - 10 - - - -
20/07:00pm 19.5 S 9 12 1025.9 - 0.0 - - 10 - - - -
20/06:30pm 19.9 SSE 9 12 1025.4 - 0.0 - - 10 - - - -
20/06:00pm 20.4 SE 9 11 1024.9 - 0.0 - - 10 - - - -
20/05:30pm 21.5 ESE 7 9 1024.4 - 0.0 - - 10 - - - -
20/05:00pm 22.2 E 7 9 1024.0 - 0.0 - - 10 - - - -
20/04:30pm 22.5 NE 7 10 1023.6 - 0.0 - - 10 - - - -
20/04:00pm 22.3 NE 5 8 1023.4 - 0.0 - - 10 - - - -
20/03:30pm 22.8 NNE 7 9 1023.0 - 0.0 - - 10 - - - -
20/03:00pm 22.8 NNE 8 11 1022.9 - 0.0 - - 10 - - - -
20/02:30pm 22.8 NNE 9 11 1023.0 - 0.0 - - 10 - - - -
20/02:00pm 23.2 NE 9 12 1023.2 - 0.0 - - 10 - - - -
20/01:30pm 22.9 NE 10 13 1023.4 - 0.0 - - 10 - - - -

Other Formats:

Comma delimited format used in spreadsheet applications
http://www.bom.gov.au/fwo/IDQ60701/IDQ60701.94592.axf

JavaScript Object Notation format (JSON) in row-major order
http://www.bom.gov.au/fwo/IDQ60701/IDQ60701.94592.json